Kensington, California
Current Conditions -  °F | °C
As of 8:53 PM on Saturday 25 Oct 2014 (Local Time) from KOAK Reporting Station
Scattered Clouds Scattered Clouds  
Wind Chill: 63°   Ceiling: Unl
Heat Index: 63°   Visibility: 10mi
Dew Point: 55°   Wind: 8mph
Humidity: 75%   Direction: 270°W
Pressure: 30.11"   Gusts: NA
Location:  37.8981°N, 122.279°W
Report Text: KOAK 260353Z 27007KT 10SM FEW020 SCT032 SCT050 17/13 A3011 RMK AO2 SLP195 T01720128
Loading
Personal Weather Stations






























Interactive Weather Map
Tropical Storm Tracking
New forecast layout! Learn more

10-Day Weather Forecast

Advertisements
Track Severe Weather on mobile